createdAt,value
2018-05-12T00:00:33.332Z,0.00
2018-05-12T00:01:33.386Z,0.00
2018-05-12T00:02:33.316Z,0.00
2018-05-12T00:03:33.320Z,0.00
2018-05-12T00:04:33.430Z,0.00
2018-05-12T00:05:33.375Z,0.00
2018-05-12T00:06:33.330Z,0.00
2018-05-12T00:07:33.347Z,0.00
2018-05-12T00:08:33.341Z,0.00
2018-05-12T00:09:33.344Z,0.00
2018-05-12T00:10:33.350Z,0.00
2018-05-12T00:11:33.372Z,0.00
2018-05-12T00:12:33.362Z,0.00
2018-05-12T00:13:33.352Z,0.00
2018-05-12T00:14:33.377Z,0.00
2018-05-12T00:15:33.370Z,0.00
2018-05-12T00:16:33.356Z,0.00
2018-05-12T00:17:33.376Z,0.00
2018-05-12T00:18:33.372Z,0.00
2018-05-12T00:19:33.375Z,0.00
2018-05-12T00:20:33.375Z,0.00
2018-05-12T00:21:33.387Z,0.00
2018-05-12T00:22:33.407Z,0.00
2018-05-12T00:23:33.376Z,0.00
2018-05-12T00:24:33.382Z,0.00
2018-05-12T00:25:33.378Z,0.00
2018-05-12T00:26:33.385Z,0.00
2018-05-12T00:27:33.398Z,0.00
2018-05-12T00:28:33.390Z,0.00
2018-05-12T00:29:33.406Z,0.00
2018-05-12T00:30:33.410Z,0.00
2018-05-12T00:31:33.404Z,0.00
2018-05-12T00:32:33.410Z,0.00
2018-05-12T00:33:33.430Z,0.00
2018-05-12T00:34:33.408Z,0.00
2018-05-12T00:35:33.432Z,0.00
2018-05-12T00:36:33.420Z,0.00
2018-05-12T00:37:33.422Z,0.00
2018-05-12T00:38:33.430Z,0.00
2018-05-12T00:39:33.423Z,0.00
2018-05-12T00:40:33.420Z,0.00
2018-05-12T00:41:33.431Z,0.00
2018-05-12T00:42:33.430Z,0.00
2018-05-12T00:43:33.431Z,0.00
2018-05-12T00:44:33.462Z,0.00
2018-05-12T00:45:33.455Z,0.00
2018-05-12T00:46:33.449Z,0.00
2018-05-12T00:47:33.437Z,0.00
2018-05-12T00:48:34.006Z,0.00
2018-05-12T00:49:33.446Z,0.00
2018-05-12T00:50:33.454Z,0.00
2018-05-12T00:51:33.452Z,0.00
2018-05-12T00:52:33.481Z,0.00
2018-05-12T00:53:33.456Z,0.00
2018-05-12T00:54:33.475Z,0.00
2018-05-12T00:55:33.494Z,0.00
2018-05-12T00:56:33.467Z,0.00
2018-05-12T00:57:33.477Z,0.00
2018-05-12T00:58:33.611Z,0.00
2018-05-12T00:59:33.496Z,0.00
2018-05-12T01:00:33.473Z,0.00
2018-05-12T01:01:33.556Z,0.00
2018-05-12T01:02:33.497Z,0.00
2018-05-12T01:03:34.008Z,0.00
2018-05-12T01:04:33.505Z,0.00
2018-05-12T01:05:33.512Z,0.00
2018-05-12T01:06:33.499Z,0.00
2018-05-12T01:07:33.504Z,0.00
2018-05-12T01:08:33.520Z,0.00
2018-05-12T01:09:33.523Z,0.00
2018-05-12T01:10:33.539Z,0.00
2018-05-12T01:11:33.522Z,0.00
2018-05-12T01:12:33.513Z,0.00
2018-05-12T01:13:33.618Z,0.00
2018-05-12T01:14:33.525Z,0.00
2018-05-12T01:15:33.528Z,0.00
2018-05-12T01:16:33.551Z,0.00
2018-05-12T01:17:33.528Z,0.00
2018-05-12T01:18:33.544Z,0.00
2018-05-12T01:19:33.531Z,0.00
2018-05-12T01:20:33.542Z,0.00
2018-05-12T01:21:33.561Z,0.00
2018-05-12T01:22:33.545Z,0.00
2018-05-12T01:23:33.540Z,0.00
2018-05-12T01:24:33.565Z,0.00
2018-05-12T01:25:33.554Z,0.00
2018-05-12T01:26:33.554Z,0.00
2018-05-12T01:27:33.561Z,0.00
2018-05-12T01:28:33.556Z,0.00
2018-05-12T01:29:33.571Z,0.00
2018-05-12T01:30:33.570Z,0.00
2018-05-12T01:31:33.574Z,0.00
2018-05-12T01:32:33.583Z,0.00
2018-05-12T01:33:33.573Z,0.00
2018-05-12T01:34:33.568Z,0.00
2018-05-12T01:35:33.594Z,0.00
2018-05-12T01:36:33.589Z,0.00
2018-05-12T01:37:33.584Z,0.00
2018-05-12T01:38:33.590Z,0.00
2018-05-12T01:39:33.593Z,0.00
2018-05-12T01:40:33.613Z,0.00
2018-05-12T01:41:33.595Z,0.00
2018-05-12T01:42:34.525Z,0.00
2018-05-12T01:43:33.599Z,0.00
2018-05-12T01:44:33.637Z,0.00
2018-05-12T01:45:33.610Z,0.00
2018-05-12T01:46:33.597Z,0.00
2018-05-12T01:47:33.619Z,0.00
2018-05-12T01:48:33.606Z,0.00
2018-05-12T01:49:33.611Z,0.00
2018-05-12T01:50:33.618Z,0.00
2018-05-12T01:51:33.622Z,0.00
2018-05-12T01:52:33.625Z,0.00
2018-05-12T01:53:33.624Z,0.00
2018-05-12T01:54:33.642Z,0.00
2018-05-12T01:55:33.650Z,0.00
2018-05-12T01:56:33.643Z,0.00
2018-05-12T01:57:34.528Z,0.00
2018-05-12T01:58:33.637Z,0.00
2018-05-12T01:59:33.641Z,0.00
2018-05-12T02:00:33.656Z,0.00
2018-05-12T02:01:33.652Z,0.00
2018-05-12T02:02:33.661Z,0.00
2018-05-12T02:03:33.673Z,0.00
2018-05-12T02:04:33.683Z,0.00
2018-05-12T02:05:33.656Z,0.00
2018-05-12T02:06:33.680Z,0.00
2018-05-12T02:07:33.651Z,0.00
2018-05-12T02:08:33.678Z,0.00
2018-05-12T02:09:33.667Z,0.00
2018-05-12T02:10:34.531Z,0.00
2018-05-12T02:11:33.673Z,0.00
2018-05-12T02:12:33.708Z,0.00
2018-05-12T02:13:33.682Z,0.00
2018-05-12T02:14:33.686Z,0.00
2018-05-12T02:15:33.681Z,0.00
2018-05-12T02:16:33.688Z,0.00
2018-05-12T02:17:33.694Z,0.00
2018-05-12T02:18:33.704Z,0.00
2018-05-12T02:19:33.689Z,0.00
2018-05-12T02:20:33.695Z,0.00
2018-05-12T02:21:33.703Z,0.00
2018-05-12T02:22:33.709Z,0.00
2018-05-12T02:23:33.712Z,0.00
2018-05-12T02:24:33.709Z,0.00
2018-05-12T02:25:33.707Z,0.00
2018-05-12T02:26:33.727Z,0.00
2018-05-12T02:27:33.721Z,0.00
2018-05-12T02:28:33.717Z,0.00
2018-05-12T02:29:33.738Z,0.00
2018-05-12T02:30:33.718Z,0.00
2018-05-12T02:31:33.730Z,0.00
2018-05-12T02:32:33.732Z,0.00
2018-05-12T02:33:33.836Z,0.00
2018-05-12T02:34:33.738Z,0.00
2018-05-12T02:35:33.755Z,0.00
2018-05-12T02:36:33.749Z,0.00
2018-05-12T02:37:33.736Z,0.00
2018-05-12T02:38:33.740Z,0.00
2018-05-12T02:39:33.765Z,0.00
2018-05-12T02:40:33.746Z,0.00
2018-05-12T02:41:33.746Z,0.00
2018-05-12T02:42:33.759Z,0.00
2018-05-12T02:43:33.756Z,0.00
2018-05-12T02:44:33.758Z,0.00
2018-05-12T02:45:33.765Z,0.00
2018-05-12T02:46:33.768Z,0.00
2018-05-12T02:47:33.771Z,0.00
2018-05-12T02:48:33.778Z,0.00
2018-05-12T02:49:33.777Z,0.00
2018-05-12T02:50:33.829Z,0.00
2018-05-12T02:51:33.861Z,0.00
2018-05-12T02:52:33.796Z,0.00
2018-05-12T02:53:33.781Z,0.00
2018-05-12T02:54:33.799Z,0.00
2018-05-12T02:55:33.788Z,0.00
2018-05-12T02:56:33.785Z,0.00
2018-05-12T02:57:33.792Z,0.00
2018-05-12T02:58:33.803Z,0.00
2018-05-12T02:59:33.817Z,0.00
2018-05-12T03:00:33.807Z,0.00
2018-05-12T03:01:35.064Z,0.00
2018-05-12T03:02:33.813Z,0.00
2018-05-12T03:03:33.805Z,0.00
2018-05-12T03:04:33.841Z,0.00
2018-05-12T03:05:33.813Z,0.00
2018-05-12T03:06:33.838Z,4.00
2018-05-12T03:07:33.828Z,4.00
2018-05-12T03:08:33.833Z,0.00
2018-05-12T03:09:33.829Z,4.00
2018-05-12T03:10:33.840Z,4.00
2018-05-12T03:11:33.839Z,4.00
2018-05-12T03:12:33.840Z,4.00
2018-05-12T03:13:33.835Z,8.00
2018-05-12T03:14:34.557Z,8.00
2018-05-12T03:15:33.844Z,4.00
2018-05-12T03:16:33.851Z,8.00
2018-05-12T03:17:33.879Z,12.00
2018-05-12T03:18:33.844Z,12.00
2018-05-12T03:19:33.861Z,12.00
2018-05-12T03:20:33.858Z,12.00
2018-05-12T03:21:33.857Z,16.00
2018-05-12T03:22:33.858Z,16.00
2018-05-12T03:23:33.855Z,20.00
2018-05-12T03:24:33.859Z,24.00
2018-05-12T03:25:33.863Z,24.00
2018-05-12T03:26:33.870Z,32.00
2018-05-12T03:27:33.905Z,32.00
2018-05-12T03:28:33.870Z,40.00
2018-05-12T03:29:33.880Z,40.00
2018-05-12T03:30:33.884Z,48.00
2018-05-12T03:31:33.892Z,56.00
2018-05-12T03:32:33.889Z,60.00
2018-05-12T03:33:33.896Z,68.00
2018-05-12T03:34:33.909Z,72.00
2018-05-12T03:35:33.894Z,84.00
2018-05-12T03:36:33.891Z,92.00
2018-05-12T03:37:33.978Z,100.00
2018-05-12T03:38:33.914Z,112.00
2018-05-12T03:39:33.908Z,120.00
2018-05-12T03:40:33.906Z,132.00
2018-05-12T03:41:33.908Z,144.00
2018-05-12T03:42:33.916Z,156.00
2018-05-12T03:43:33.919Z,164.00
2018-05-12T03:44:33.912Z,176.00
2018-05-12T03:45:33.952Z,188.00
2018-05-12T03:46:33.920Z,200.00
2018-05-12T03:47:33.927Z,216.00
2018-05-12T03:48:33.925Z,228.00
2018-05-12T03:49:33.925Z,244.00
2018-05-12T03:50:33.935Z,260.00
2018-05-12T03:51:33.944Z,276.00
2018-05-12T03:52:33.930Z,292.00
2018-05-12T03:53:33.948Z,312.00
2018-05-12T03:54:33.941Z,328.00
2018-05-12T03:55:33.956Z,344.00
2018-05-12T03:56:33.973Z,368.00
2018-05-12T03:57:33.952Z,388.00
2018-05-12T03:58:33.985Z,412.00
2018-05-12T03:59:33.967Z,432.00
2018-05-12T04:00:33.966Z,452.00
2018-05-12T04:01:33.953Z,476.00
2018-05-12T04:02:33.966Z,500.00
2018-05-12T04:03:33.970Z,524.00
2018-05-12T04:04:33.969Z,544.00
2018-05-12T04:05:33.971Z,568.00
2018-05-12T04:06:33.975Z,596.00
2018-05-12T04:07:33.975Z,620.00
2018-05-12T04:08:34.013Z,648.00
2018-05-12T04:09:33.978Z,676.00
2018-05-12T04:10:33.980Z,704.00
2018-05-12T04:11:33.988Z,736.00
2018-05-12T04:12:34.572Z,764.00
2018-05-12T04:13:34.000Z,796.00
2018-05-12T04:14:34.017Z,824.00
2018-05-12T04:15:33.994Z,860.00
2018-05-12T04:16:34.011Z,888.00
2018-05-12T04:17:34.017Z,928.00
2018-05-12T04:18:34.027Z,960.00
2018-05-12T04:19:34.011Z,992.00
2018-05-12T04:20:34.021Z,1028.00
2018-05-12T04:21:35.075Z,1056.00
2018-05-12T04:22:34.018Z,1092.00
2018-05-12T04:23:34.007Z,1128.00
2018-05-12T04:24:34.010Z,1160.00
2018-05-12T04:25:34.022Z,1200.00
2018-05-12T04:26:34.016Z,1236.00
2018-05-12T04:27:34.023Z,1276.00
2018-05-12T04:28:34.030Z,1312.00
2018-05-12T04:29:34.021Z,1356.00
2018-05-12T04:30:34.039Z,1404.00
2018-05-12T04:31:34.057Z,1440.00
2018-05-12T04:32:34.033Z,1480.00
2018-05-12T04:33:34.041Z,1528.00
2018-05-12T04:34:34.053Z,1564.00
2018-05-12T04:35:34.068Z,1612.00
2018-05-12T04:36:34.117Z,1652.00
2018-05-12T04:37:34.045Z,1700.00
2018-05-12T04:38:34.051Z,1744.00
2018-05-12T04:39:34.059Z,1792.00
2018-05-12T04:40:34.046Z,1828.00
2018-05-12T04:41:34.067Z,1868.00
2018-05-12T04:42:34.085Z,1908.00
2018-05-12T04:43:34.065Z,1948.00
2018-05-12T04:44:34.074Z,1996.00
2018-05-12T04:45:34.088Z,2044.00
2018-05-12T04:46:34.062Z,2084.00
2018-05-12T04:47:34.081Z,2124.00
2018-05-12T04:48:34.084Z,2156.00
2018-05-12T04:49:34.144Z,2200.00
2018-05-12T04:50:34.083Z,2244.00
2018-05-12T04:51:34.079Z,2296.00
2018-05-12T04:52:34.580Z,2360.00
2018-05-12T04:53:34.078Z,2416.00
2018-05-12T04:54:34.095Z,2476.00
2018-05-12T04:55:34.096Z,2548.00
2018-05-12T04:56:34.101Z,2624.00
2018-05-12T04:57:34.120Z,2684.00
2018-05-12T04:58:34.121Z,2752.00
2018-05-12T04:59:34.113Z,2812.00
2018-05-12T05:00:34.106Z,2876.00
2018-05-12T05:01:34.125Z,2940.00
2018-05-12T05:02:34.129Z,2992.00
2018-05-12T05:03:34.108Z,3040.00
2018-05-12T05:04:34.115Z,3096.00
2018-05-12T05:05:34.118Z,3144.00
2018-05-12T05:06:34.123Z,3200.00
2018-05-12T05:07:34.124Z,3252.00
2018-05-12T05:08:34.157Z,3308.00
2018-05-12T05:09:34.126Z,3348.00
2018-05-12T05:10:34.124Z,3396.00
2018-05-12T05:11:34.137Z,3448.00
2018-05-12T05:12:34.228Z,3496.00
2018-05-12T05:13:34.140Z,3536.00
2018-05-12T05:14:34.137Z,3584.00
2018-05-12T05:15:34.156Z,3652.00
2018-05-12T05:16:34.141Z,3716.00
2018-05-12T05:17:34.170Z,3780.00
2018-05-12T05:18:34.147Z,3840.00
2018-05-12T05:19:34.147Z,3908.00
2018-05-12T05:20:34.184Z,3976.00
2018-05-12T05:21:34.157Z,4016.00
2018-05-12T05:22:34.165Z,4080.00
2018-05-12T05:23:34.168Z,4168.00
2018-05-12T05:24:34.174Z,4244.00
2018-05-12T05:25:35.096Z,4308.00
2018-05-12T05:26:34.173Z,4404.00
2018-05-12T05:27:34.178Z,4424.00
2018-05-12T05:28:34.179Z,4468.00
2018-05-12T05:29:34.179Z,4920.00
2018-05-12T05:30:34.178Z,5524.00
2018-05-12T05:31:34.179Z,6316.00
2018-05-12T05:32:34.204Z,4924.00
2018-05-12T05:33:35.096Z,4984.00
2018-05-12T05:34:34.200Z,4696.00
2018-05-12T05:35:34.201Z,5108.00
2018-05-12T05:36:34.197Z,6988.00
2018-05-12T05:37:34.200Z,5220.00
2018-05-12T05:38:34.210Z,5268.00
2018-05-12T05:39:34.217Z,5280.00
2018-05-12T05:40:34.208Z,5352.00
2018-05-12T05:41:34.285Z,5360.00
2018-05-12T05:42:34.227Z,5400.00
2018-05-12T05:43:34.218Z,5424.00
2018-05-12T05:44:34.230Z,5480.00
2018-05-12T05:45:34.231Z,5396.00
2018-05-12T05:46:34.247Z,5600.00
2018-05-12T05:47:34.290Z,5604.00
2018-05-12T05:48:34.285Z,5564.00
2018-05-12T05:49:34.268Z,6416.00
2018-05-12T05:50:34.250Z,7032.00
2018-05-12T05:51:34.258Z,7004.00
2018-05-12T05:52:34.260Z,6756.00
2018-05-12T05:53:34.255Z,6300.00
2018-05-12T05:54:34.253Z,6548.00
2018-05-12T05:55:34.294Z,6820.00
2018-05-12T05:56:34.263Z,7452.00
2018-05-12T05:57:34.262Z,8040.00
2018-05-12T05:58:35.153Z,8116.00
2018-05-12T05:59:34.273Z,8268.00
2018-05-12T06:00:34.278Z,8216.00
2018-05-12T06:01:34.296Z,8196.00
2018-05-12T06:02:34.280Z,8200.00
2018-05-12T06:03:34.290Z,8436.00
2018-05-12T06:04:34.301Z,8344.00
2018-05-12T06:05:34.311Z,7660.00
2018-05-12T06:06:34.310Z,7664.00
2018-05-12T06:07:34.301Z,8028.00
2018-05-12T06:08:34.305Z,8476.00
2018-05-12T06:09:34.309Z,8892.00
2018-05-12T06:10:34.318Z,9304.00
2018-05-12T06:11:34.333Z,9384.00
2018-05-12T06:12:34.322Z,9400.00
2018-05-12T06:13:34.328Z,9228.00
2018-05-12T06:14:34.335Z,8736.00
2018-05-12T06:15:34.356Z,8636.00
2018-05-12T06:16:34.340Z,9304.00
2018-05-12T06:17:34.370Z,9848.00
2018-05-12T06:18:34.370Z,10196.00
2018-05-12T06:19:34.369Z,10284.00
2018-05-12T06:20:34.373Z,10184.00
2018-05-12T06:21:34.369Z,10172.00
2018-05-12T06:22:34.425Z,10068.00
2018-05-12T06:23:34.411Z,10560.00
2018-05-12T06:24:34.447Z,10728.00
2018-05-12T06:25:34.405Z,11408.00
2018-05-12T06:26:34.404Z,11572.00
2018-05-12T06:27:34.405Z,11584.00
2018-05-12T06:28:34.429Z,11764.00
2018-05-12T06:29:34.428Z,11708.00
2018-05-12T06:30:34.431Z,11700.00
2018-05-12T06:31:34.443Z,11260.00
2018-05-12T06:32:34.447Z,10768.00
2018-05-12T06:33:34.523Z,10212.00
2018-05-12T06:34:34.517Z,9576.00
2018-05-12T06:35:34.479Z,9140.00
2018-05-12T06:36:34.475Z,8436.00
2018-05-12T06:37:34.513Z,8360.00
2018-05-12T06:38:34.492Z,8620.00
2018-05-12T06:39:34.538Z,8976.00
2018-05-12T06:40:34.510Z,9696.00
2018-05-12T06:41:34.518Z,11564.00
2018-05-12T06:42:34.518Z,13168.00
2018-05-12T06:43:34.532Z,13812.00
2018-05-12T06:44:34.616Z,14228.00
2018-05-12T06:45:34.540Z,14204.00
2018-05-12T06:46:34.575Z,14188.00
2018-05-12T06:47:34.892Z,13592.00
2018-05-12T06:48:34.562Z,13784.00
2018-05-12T06:49:34.612Z,14424.00
2018-05-12T06:50:34.609Z,14896.00
2018-05-12T06:51:34.589Z,14848.00
2018-05-12T06:52:34.596Z,14352.00
2018-05-12T06:53:34.610Z,14056.00
2018-05-12T06:54:35.137Z,11624.00
2018-05-12T06:55:34.646Z,16672.00
2018-05-12T06:56:34.638Z,13748.00
2018-05-12T06:57:34.652Z,15708.00
2018-05-12T06:58:34.669Z,16256.00
2018-05-12T06:59:34.671Z,16576.00
2018-05-12T07:00:34.676Z,15972.00
2018-05-12T07:01:34.688Z,15652.00
2018-05-12T07:02:34.694Z,15892.00
2018-05-12T07:03:34.705Z,16832.00
2018-05-12T07:04:34.714Z,17248.00
2018-05-12T07:05:34.716Z,17280.00
2018-05-12T07:06:34.744Z,17600.00
2018-05-12T07:07:35.646Z,16704.00
2018-05-12T07:08:34.738Z,16928.00
2018-05-12T07:09:34.757Z,17408.00
2018-05-12T07:10:34.776Z,17600.00
2018-05-12T07:11:34.778Z,17824.00
2018-05-12T07:12:34.783Z,18432.00
2018-05-12T07:13:34.794Z,18688.00
2018-05-12T07:14:34.795Z,19264.00
2018-05-12T07:15:34.816Z,19328.00
2018-05-12T07:16:34.848Z,18784.00
2018-05-12T07:17:34.844Z,18048.00
2018-05-12T07:18:34.847Z,17760.00
2018-05-12T07:19:34.852Z,17568.00
2018-05-12T07:20:34.868Z,17888.00
2018-05-12T07:21:34.881Z,18720.00
2018-05-12T07:22:34.895Z,18976.00
2018-05-12T07:23:34.900Z,19616.00
2018-05-12T07:24:34.938Z,20448.00
2018-05-12T07:25:34.960Z,20704.00
2018-05-12T07:26:34.941Z,21472.00
2018-05-12T07:27:34.952Z,22592.00
2018-05-12T07:28:34.953Z,22976.00
2018-05-12T07:29:35.056Z,23776.00
2018-05-12T07:30:35.025Z,23968.00
2018-05-12T07:31:35.009Z,24384.00
2018-05-12T07:32:35.025Z,25216.00
2018-05-12T07:33:35.023Z,25760.00
2018-05-12T07:34:35.046Z,26304.00
2018-05-12T07:35:35.036Z,28064.00
2018-05-12T07:36:35.060Z,30368.00
2018-05-12T07:37:35.065Z,33184.00
2018-05-12T07:38:35.082Z,35136.00
2018-05-12T07:39:35.091Z,38432.00
2018-05-12T07:40:35.111Z,43552.00
2018-05-12T07:41:35.157Z,52640.00
2018-05-12T07:42:35.227Z,66400.00
2018-05-12T07:43:35.161Z,66848.00
2018-05-12T07:44:35.163Z,73568.00
2018-05-12T07:45:35.226Z,76512.00
2018-05-12T07:46:35.212Z,86752.00
2018-05-12T07:47:35.225Z,98656.00
2018-05-12T07:48:35.249Z,109984.00
2018-05-12T07:49:35.241Z,108256.00
2018-05-12T07:50:35.241Z,108320.00
2018-05-12T07:51:35.298Z,99104.00
2018-05-12T07:52:35.279Z,96576.00
2018-05-12T07:53:35.308Z,95168.00
2018-05-12T07:54:35.289Z,87072.00
2018-05-12T07:55:35.309Z,82752.00
2018-05-12T07:56:35.343Z,78592.00
2018-05-12T07:57:35.357Z,71424.00
2018-05-12T07:58:35.366Z,73344.00
2018-05-12T07:59:35.377Z,67328.00
2018-05-12T08:00:35.397Z,59424.00
2018-05-12T08:01:35.387Z,58944.00
2018-05-12T08:02:35.420Z,58528.00
2018-05-12T08:03:35.443Z,57760.00
2018-05-12T08:04:35.451Z,57984.00
2018-05-12T08:05:35.478Z,55168.00
2018-05-12T08:06:35.474Z,51840.00
2018-05-12T08:07:35.523Z,52640.00
2018-05-12T08:08:35.510Z,55488.00
2018-05-12T08:09:35.532Z,60704.00
2018-05-12T08:10:35.537Z,58976.00
2018-05-12T08:11:35.569Z,55328.00
2018-05-12T08:12:35.559Z,50048.00
2018-05-12T08:13:35.610Z,48640.00
2018-05-12T08:14:35.599Z,50528.00
2018-05-12T08:15:35.624Z,51296.00
2018-05-12T08:16:35.627Z,50976.00
2018-05-12T08:17:35.649Z,51424.00
2018-05-12T08:18:35.661Z,49952.00
2018-05-12T08:19:35.709Z,46912.00
2018-05-12T08:20:35.816Z,47296.00
2018-05-12T08:21:35.713Z,49056.00
2018-05-12T08:22:35.732Z,49504.00
2018-05-12T08:23:35.743Z,48032.00
2018-05-12T08:24:35.890Z,47104.00
2018-05-12T08:25:35.781Z,46528.00
2018-05-12T08:26:35.819Z,47392.00
2018-05-12T08:27:35.828Z,48800.00
2018-05-12T08:28:35.829Z,49248.00
2018-05-12T08:29:35.858Z,49696.00
2018-05-12T08:30:35.872Z,50272.00
2018-05-12T08:31:35.939Z,52256.00
2018-05-12T08:32:35.948Z,51776.00
2018-05-12T08:33:35.924Z,49600.00
2018-05-12T08:34:35.964Z,49728.00
2018-05-12T08:35:35.980Z,50528.00
2018-05-12T08:36:36.031Z,50752.00
2018-05-12T08:37:36.010Z,51488.00
2018-05-12T08:38:36.028Z,53216.00
2018-05-12T08:39:36.037Z,53312.00
2018-05-12T08:40:36.175Z,54944.00
2018-05-12T08:41:36.202Z,55040.00
2018-05-12T08:42:36.101Z,57440.00
2018-05-12T08:43:36.149Z,64416.00
2018-05-12T08:44:36.157Z,68576.00
2018-05-12T08:45:36.156Z,67200.00
2018-05-12T08:46:36.175Z,67424.00
2018-05-12T08:47:36.192Z,73984.00
2018-05-12T08:48:36.212Z,77152.00
2018-05-12T08:49:36.224Z,73120.00
2018-05-12T08:50:36.287Z,66752.00
2018-05-12T08:51:36.281Z,58976.00
2018-05-12T08:52:36.282Z,52960.00
2018-05-12T08:53:36.330Z,50496.00
2018-05-12T08:54:36.339Z,48736.00
2018-05-12T08:55:36.360Z,46400.00
2018-05-12T08:56:36.357Z,45888.00
2018-05-12T08:57:36.378Z,44512.00
2018-05-12T08:58:36.423Z,44160.00
2018-05-12T08:59:36.428Z,45344.00
2018-05-12T09:00:36.441Z,45376.00
2018-05-12T09:01:36.541Z,46464.00
2018-05-12T09:02:36.478Z,47360.00
2018-05-12T09:03:36.506Z,47680.00
2018-05-12T09:04:36.535Z,47872.00
2018-05-12T09:05:36.582Z,48096.00
2018-05-12T09:06:36.561Z,48160.00
2018-05-12T09:07:36.581Z,48128.00
2018-05-12T09:08:36.623Z,48128.00
2018-05-12T09:09:36.627Z,48320.00
2018-05-12T09:10:36.658Z,48416.00
2018-05-12T09:11:36.663Z,48224.00
2018-05-12T09:12:36.677Z,46848.00
2018-05-12T09:13:36.847Z,47328.00
2018-05-12T09:14:36.723Z,47904.00
2018-05-12T09:15:36.750Z,47520.00
2018-05-12T09:16:36.761Z,45824.00
2018-05-12T09:17:36.802Z,45152.00
2018-05-12T09:18:36.804Z,44608.00
2018-05-12T09:19:36.822Z,38848.00
2018-05-12T09:20:36.846Z,37312.00
2018-05-12T09:21:36.865Z,36192.00
2018-05-12T09:22:36.892Z,40128.00
2018-05-12T09:23:36.905Z,42592.00
2018-05-12T09:24:36.935Z,41600.00
2018-05-12T09:25:37.041Z,42464.00
2018-05-12T09:26:37.011Z,43648.00
2018-05-12T09:27:36.996Z,45472.00
2018-05-12T09:28:37.008Z,46816.00
2018-05-12T09:29:37.041Z,52960.00
2018-05-12T09:30:37.077Z,59584.00
2018-05-12T09:31:37.079Z,57408.00
2018-05-12T09:32:37.101Z,59008.00
2018-05-12T09:33:37.111Z,63136.00
2018-05-12T09:34:37.139Z,69120.00
2018-05-12T09:35:37.158Z,78304.00
2018-05-12T09:36:37.221Z,70496.00
2018-05-12T09:37:37.207Z,68896.00
2018-05-12T09:38:37.242Z,74944.00
2018-05-12T09:39:37.245Z,84928.00
2018-05-12T09:40:38.256Z,62272.00
2018-05-12T09:41:37.294Z,56832.00
2018-05-12T09:42:37.356Z,70816.00
2018-05-12T09:43:37.358Z,56064.00
2018-05-12T09:44:37.372Z,52000.00
2018-05-12T09:45:37.442Z,78112.00
2018-05-12T09:46:37.396Z,76576.00
2018-05-12T09:47:37.420Z,78272.00
2018-05-12T09:48:37.434Z,81600.00
2018-05-12T09:49:37.463Z,81088.00
2018-05-12T09:50:37.487Z,87904.00
2018-05-12T09:51:37.730Z,83328.00
2018-05-12T09:52:37.520Z,71392.00
2018-05-12T09:53:37.550Z,80160.00
2018-05-12T09:54:37.560Z,79936.00
2018-05-12T09:55:37.585Z,78016.00
2018-05-12T09:56:37.606Z,85472.00
2018-05-12T09:57:37.688Z,97888.00
2018-05-12T09:58:37.660Z,87552.00
2018-05-12T09:59:37.680Z,85568.00
2018-05-12T10:00:37.701Z,84640.00
2018-05-12T10:01:37.720Z,77664.00
2018-05-12T10:02:37.799Z,15572.00
2018-05-12T10:03:37.765Z,46112.00
2018-05-12T10:04:37.788Z,87040.00
2018-05-12T10:05:37.810Z,80672.00
2018-05-12T10:06:37.845Z,74208.00
2018-05-12T10:07:37.865Z,71520.00
2018-05-12T10:08:37.868Z,77344.00
2018-05-12T10:09:38.783Z,72960.00
2018-05-12T10:10:37.919Z,68160.00
2018-05-12T10:11:37.936Z,72128.00
2018-05-12T10:12:37.972Z,74944.00
2018-05-12T10:13:37.983Z,76160.00
2018-05-12T10:14:37.998Z,77600.00
2018-05-12T10:15:38.133Z,21440.00
2018-05-12T10:16:38.067Z,39424.00
2018-05-12T10:17:38.061Z,13728.00
2018-05-12T10:18:38.093Z,10668.00
2018-05-12T10:19:38.229Z,16576.00
2018-05-12T10:20:38.146Z,54112.00
2018-05-12T10:21:38.151Z,11872.00
2018-05-12T10:22:38.162Z,16200.00
2018-05-12T10:23:38.198Z,73984.00
2018-05-12T10:24:38.249Z,52032.00
2018-05-12T10:25:38.225Z,66112.00
2018-05-12T10:26:38.239Z,20896.00
2018-05-12T10:27:38.264Z,48192.00
2018-05-12T10:28:38.273Z,19584.00
2018-05-12T10:29:38.317Z,69024.00
2018-05-12T10:30:38.312Z,70112.00
2018-05-12T10:31:38.335Z,60960.00
2018-05-12T10:32:38.358Z,58336.00
2018-05-12T10:33:38.367Z,54688.00
2018-05-12T10:34:38.416Z,60000.00
2018-05-12T10:35:38.405Z,63584.00
2018-05-12T10:36:38.428Z,64576.00
2018-05-12T10:37:38.467Z,61856.00
2018-05-12T10:38:38.470Z,60704.00
2018-05-12T10:39:38.492Z,47296.00
2018-05-12T10:40:38.501Z,9500.00
2018-05-12T10:41:38.519Z,8704.00
2018-05-12T10:42:38.559Z,8020.00
2018-05-12T10:43:38.543Z,8152.00
2018-05-12T10:44:38.558Z,8536.00
2018-05-12T10:45:38.585Z,9092.00
2018-05-12T10:46:38.611Z,9984.00
2018-05-12T10:47:38.613Z,11432.00
2018-05-12T10:48:39.283Z,13684.00
2018-05-12T10:49:38.652Z,14488.00
2018-05-12T10:50:38.706Z,13852.00
2018-05-12T10:51:38.673Z,13180.00
2018-05-12T10:52:38.706Z,12568.00
2018-05-12T10:53:38.708Z,12292.00
2018-05-12T10:54:38.718Z,12036.00
2018-05-12T10:55:38.738Z,12108.00
2018-05-12T10:56:38.749Z,12600.00
2018-05-12T10:57:38.770Z,12320.00
2018-05-12T10:58:38.782Z,12252.00
2018-05-12T10:59:38.808Z,12008.00
2018-05-12T11:00:38.806Z,12016.00
2018-05-12T11:01:39.298Z,12260.00
2018-05-12T11:02:38.838Z,12440.00
2018-05-12T11:03:38.851Z,12488.00
2018-05-12T11:04:38.871Z,12408.00
2018-05-12T11:05:38.891Z,12328.00
2018-05-12T11:06:38.877Z,12044.00
2018-05-12T11:07:38.892Z,11688.00
2018-05-12T11:08:38.913Z,11484.00
2018-05-12T11:09:38.977Z,11516.00
2018-05-12T11:10:38.930Z,11508.00
2018-05-12T11:11:38.943Z,11572.00
2018-05-12T11:12:38.952Z,11496.00
2018-05-12T11:13:38.967Z,11460.00
2018-05-12T11:14:38.983Z,11460.00
2018-05-12T11:15:38.998Z,11496.00
2018-05-12T11:16:39.008Z,11564.00
2018-05-12T11:17:39.014Z,11724.00
2018-05-12T11:18:39.024Z,11920.00
2018-05-12T11:19:39.041Z,11968.00
2018-05-12T11:20:39.043Z,11700.00
2018-05-12T11:21:39.093Z,11536.00
2018-05-12T11:22:39.062Z,11396.00
2018-05-12T11:23:39.082Z,11244.00
2018-05-12T11:24:39.101Z,11192.00
2018-05-12T11:25:39.107Z,11144.00
2018-05-12T11:26:39.127Z,11268.00
2018-05-12T11:27:39.120Z,11348.00
2018-05-12T11:28:39.128Z,11340.00
2018-05-12T11:29:39.152Z,11116.00
2018-05-12T11:30:39.148Z,10896.00
2018-05-12T11:31:39.171Z,10612.00
2018-05-12T11:32:39.170Z,10252.00
2018-05-12T11:33:39.189Z,10044.00
2018-05-12T11:34:39.222Z,10048.00
2018-05-12T11:35:39.211Z,10132.00
2018-05-12T11:36:39.245Z,10204.00
2018-05-12T11:37:39.232Z,10280.00
2018-05-12T11:38:39.302Z,10304.00
2018-05-12T11:39:39.265Z,10192.00
2018-05-12T11:40:39.271Z,10192.00
2018-05-12T11:41:39.280Z,10372.00
2018-05-12T11:42:39.287Z,10596.00
2018-05-12T11:43:39.345Z,10308.00
2018-05-12T11:44:39.475Z,9892.00
2018-05-12T11:45:39.338Z,9404.00
2018-05-12T11:46:39.320Z,9088.00
2018-05-12T11:47:39.341Z,8592.00
2018-05-12T11:48:39.332Z,8420.00
2018-05-12T11:49:39.393Z,8480.00
2018-05-12T11:50:39.433Z,8692.00
2018-05-12T11:51:39.370Z,8952.00
2018-05-12T11:52:39.377Z,9144.00
2018-05-12T11:53:39.393Z,9364.00
2018-05-12T11:54:39.393Z,9424.00
2018-05-12T11:55:39.408Z,9740.00
2018-05-12T11:56:39.443Z,10056.00
2018-05-12T11:57:39.444Z,9948.00
2018-05-12T11:58:39.453Z,10012.00
2018-05-12T11:59:40.329Z,10384.00
2018-05-12T12:00:39.462Z,10716.00
2018-05-12T12:01:39.512Z,10132.00
2018-05-12T12:02:39.502Z,9716.00
2018-05-12T12:03:39.558Z,9420.00
2018-05-12T12:04:39.496Z,9096.00
2018-05-12T12:05:39.499Z,8652.00
2018-05-12T12:06:39.555Z,8344.00
2018-05-12T12:07:39.517Z,8088.00
2018-05-12T12:08:39.526Z,7920.00
2018-05-12T12:09:39.551Z,7664.00
2018-05-12T12:10:39.569Z,7400.00
2018-05-12T12:11:39.553Z,7488.00
2018-05-12T12:12:39.572Z,7836.00
2018-05-12T12:13:39.579Z,8064.00
2018-05-12T12:14:39.601Z,8156.00
2018-05-12T12:15:39.617Z,8344.00
2018-05-12T12:16:39.644Z,8708.00